sensor_id;sensor_type;location;lat;lon;timestamp;P1;durP1;ratioP1;P2;durP2;ratioP2
4595;SDS011;2310;49.978;8.742;2022-09-13T00:03:08;7.03;;;6.33;;
4595;SDS011;2310;49.978;8.742;2022-09-13T00:07:11;8.57;;;6.40;;
4595;SDS011;2310;49.978;8.742;2022-09-13T00:11:17;9.63;;;7.37;;
4595;SDS011;2310;49.978;8.742;2022-09-13T00:15:20;9.13;;;6.60;;
4595;SDS011;2310;49.978;8.742;2022-09-13T00:19:21;8.77;;;7.80;;
4595;SDS011;2310;49.978;8.742;2022-09-13T00:23:22;8.37;;;7.57;;
4595;SDS011;2310;49.978;8.742;2022-09-13T00:27:24;9.27;;;7.67;;
4595;SDS011;2310;49.978;8.742;2022-09-13T00:31:25;9.00;;;7.83;;
4595;SDS011;2310;49.978;8.742;2022-09-13T00:35:28;9.13;;;8.23;;
4595;SDS011;2310;49.978;8.742;2022-09-13T00:39:30;10.47;;;8.10;;
4595;SDS011;2310;49.978;8.742;2022-09-13T00:47:55;9.90;;;8.60;;
4595;SDS011;2310;49.978;8.742;2022-09-13T00:52:04;8.80;;;7.90;;
4595;SDS011;2310;49.978;8.742;2022-09-13T00:56:12;9.27;;;8.37;;
4595;SDS011;2310;49.978;8.742;2022-09-13T01:00:24;9.40;;;8.13;;
4595;SDS011;2310;49.978;8.742;2022-09-13T01:04:26;7.90;;;7.10;;
4595;SDS011;2310;49.978;8.742;2022-09-13T01:08:29;8.57;;;7.67;;
4595;SDS011;2310;49.978;8.742;2022-09-13T01:12:38;10.00;;;7.97;;
4595;SDS011;2310;49.978;8.742;2022-09-13T01:16:44;9.60;;;7.33;;
4595;SDS011;2310;49.978;8.742;2022-09-13T01:21:48;8.80;;;7.90;;
4595;SDS011;2310;49.978;8.742;2022-09-13T01:43:09;11.73;;;8.00;;
4595;SDS011;2310;49.978;8.742;2022-09-13T01:51:28;8.90;;;8.00;;
4595;SDS011;2310;49.978;8.742;2022-09-13T01:59:53;8.33;;;7.27;;
4595;SDS011;2310;49.978;8.742;2022-09-13T02:04:09;11.20;;;10.10;;
4595;SDS011;2310;49.978;8.742;2022-09-13T02:08:34;10.93;;;9.60;;
4595;SDS011;2310;49.978;8.742;2022-09-13T02:12:42;11.10;;;10.10;;
4595;SDS011;2310;49.978;8.742;2022-09-13T02:16:45;9.80;;;8.87;;
4595;SDS011;2310;49.978;8.742;2022-09-13T02:20:52;9.47;;;8.47;;
4595;SDS011;2310;49.978;8.742;2022-09-13T02:25:11;9.20;;;8.23;;
4595;SDS011;2310;49.978;8.742;2022-09-13T02:29:15;10.33;;;8.83;;
4595;SDS011;2310;49.978;8.742;2022-09-13T02:33:23;11.13;;;7.33;;
4595;SDS011;2310;49.978;8.742;2022-09-13T02:37:24;9.07;;;8.17;;
4595;SDS011;2310;49.978;8.742;2022-09-13T02:41:34;8.77;;;7.93;;
4595;SDS011;2310;49.978;8.742;2022-09-13T02:45:56;10.20;;;9.10;;
4595;SDS011;2310;49.978;8.742;2022-09-13T02:54:37;10.23;;;7.60;;
4595;SDS011;2310;49.978;8.742;2022-09-13T03:02:48;9.70;;;8.60;;
4595;SDS011;2310;49.978;8.742;2022-09-13T03:06:51;8.13;;;7.33;;
4595;SDS011;2310;49.978;8.742;2022-09-13T03:20:05;8.57;;;7.03;;
4595;SDS011;2310;49.978;8.742;2022-09-13T03:28:41;9.93;;;8.90;;
4595;SDS011;2310;49.978;8.742;2022-09-13T03:37:26;8.30;;;7.50;;
4595;SDS011;2310;49.978;8.742;2022-09-13T03:41:31;9.57;;;8.57;;
4595;SDS011;2310;49.978;8.742;2022-09-13T03:45:35;11.93;;;8.43;;
4595;SDS011;2310;49.978;8.742;2022-09-13T03:49:40;9.27;;;8.23;;
4595;SDS011;2310;49.978;8.742;2022-09-13T03:53:43;8.60;;;7.50;;
4595;SDS011;2310;49.978;8.742;2022-09-13T03:57:46;10.00;;;9.00;;
4595;SDS011;2310;49.978;8.742;2022-09-13T04:01:48;9.33;;;8.43;;
4595;SDS011;2310;49.978;8.742;2022-09-13T04:05:49;10.93;;;8.60;;
4595;SDS011;2310;49.978;8.742;2022-09-13T04:09:50;9.57;;;8.67;;
4595;SDS011;2310;49.978;8.742;2022-09-13T04:13:52;10.03;;;9.03;;
4595;SDS011;2310;49.978;8.742;2022-09-13T04:17:53;8.80;;;7.87;;
4595;SDS011;2310;49.978;8.742;2022-09-13T04:21:54;9.93;;;8.17;;
4595;SDS011;2310;49.978;8.742;2022-09-13T04:25:59;10.63;;;8.80;;
4595;SDS011;2310;49.978;8.742;2022-09-13T04:30:03;10.83;;;9.73;;
4595;SDS011;2310;49.978;8.742;2022-09-13T04:34:04;10.77;;;8.40;;
4595;SDS011;2310;49.978;8.742;2022-09-13T04:38:06;13.37;;;10.10;;
4595;SDS011;2310;49.978;8.742;2022-09-13T04:42:08;12.97;;;9.83;;
4595;SDS011;2310;49.978;8.742;2022-09-13T04:46:11;11.50;;;10.40;;
4595;SDS011;2310;49.978;8.742;2022-09-13T04:50:12;10.87;;;9.37;;
4595;SDS011;2310;49.978;8.742;2022-09-13T04:54:14;9.47;;;8.47;;
4595;SDS011;2310;49.978;8.742;2022-09-13T04:58:17;10.20;;;8.37;;
4595;SDS011;2310;49.978;8.742;2022-09-13T05:02:18;10.00;;;9.00;;
4595;SDS011;2310;49.978;8.742;2022-09-13T05:06:20;10.23;;;9.23;;
4595;SDS011;2310;49.978;8.742;2022-09-13T05:10:22;10.10;;;9.10;;
4595;SDS011;2310;49.978;8.742;2022-09-13T05:14:24;12.20;;;8.83;;
4595;SDS011;2310;49.978;8.742;2022-09-13T05:18:25;9.70;;;7.37;;
4595;SDS011;2310;49.978;8.742;2022-09-13T05:22:28;9.37;;;8.40;;
4595;SDS011;2310;49.978;8.742;2022-09-13T05:26:29;9.07;;;7.87;;
4595;SDS011;2310;49.978;8.742;2022-09-13T05:30:31;9.40;;;7.53;;
4595;SDS011;2310;49.978;8.742;2022-09-13T05:34:32;9.47;;;8.10;;
4595;SDS011;2310;49.978;8.742;2022-09-13T05:38:33;10.10;;;8.53;;
4595;SDS011;2310;49.978;8.742;2022-09-13T05:42:35;9.80;;;7.73;;
4595;SDS011;2310;49.978;8.742;2022-09-13T05:46:36;9.70;;;8.43;;
4595;SDS011;2310;49.978;8.742;2022-09-13T05:50:37;10.00;;;7.67;;
4595;SDS011;2310;49.978;8.742;2022-09-13T05:54:41;8.73;;;7.93;;
4595;SDS011;2310;49.978;8.742;2022-09-13T05:58:43;10.60;;;8.97;;
4595;SDS011;2310;49.978;8.742;2022-09-13T06:02:45;10.47;;;8.00;;
4595;SDS011;2310;49.978;8.742;2022-09-13T06:06:47;9.07;;;8.10;;
4595;SDS011;2310;49.978;8.742;2022-09-13T06:10:58;10.13;;;7.60;;
4595;SDS011;2310;49.978;8.742;2022-09-13T06:15:02;9.93;;;8.93;;
4595;SDS011;2310;49.978;8.742;2022-09-13T06:19:04;10.03;;;9.03;;
4595;SDS011;2310;49.978;8.742;2022-09-13T06:23:05;11.43;;;10.23;;
4595;SDS011;2310;49.978;8.742;2022-09-13T06:27:06;11.60;;;9.57;;
4595;SDS011;2310;49.978;8.742;2022-09-13T06:31:08;10.63;;;9.53;;
4595;SDS011;2310;49.978;8.742;2022-09-13T06:35:12;12.67;;;11.40;;
4595;SDS011;2310;49.978;8.742;2022-09-13T06:39:13;11.23;;;10.13;;
4595;SDS011;2310;49.978;8.742;2022-09-13T06:43:14;10.53;;;9.30;;
4595;SDS011;2310;49.978;8.742;2022-09-13T06:47:15;15.13;;;13.67;;
4595;SDS011;2310;49.978;8.742;2022-09-13T06:51:18;12.27;;;10.90;;
4595;SDS011;2310;49.978;8.742;2022-09-13T06:55:21;13.00;;;10.73;;
4595;SDS011;2310;49.978;8.742;2022-09-13T06:59:22;11.80;;;10.40;;
4595;SDS011;2310;49.978;8.742;2022-09-13T07:03:23;12.50;;;11.20;;
4595;SDS011;2310;49.978;8.742;2022-09-13T07:07:27;13.70;;;10.60;;
4595;SDS011;2310;49.978;8.742;2022-09-13T07:11:29;11.80;;;10.60;;
4595;SDS011;2310;49.978;8.742;2022-09-13T07:15:35;11.20;;;9.63;;
4595;SDS011;2310;49.978;8.742;2022-09-13T07:19:36;11.80;;;9.70;;
4595;SDS011;2310;49.978;8.742;2022-09-13T07:23:38;11.23;;;9.67;;
4595;SDS011;2310;49.978;8.742;2022-09-13T07:27:40;12.67;;;10.90;;
4595;SDS011;2310;49.978;8.742;2022-09-13T07:31:42;11.53;;;10.43;;
4595;SDS011;2310;49.978;8.742;2022-09-13T07:35:53;12.13;;;10.67;;
4595;SDS011;2310;49.978;8.742;2022-09-13T07:39:51;12.30;;;11.10;;
4595;SDS011;2310;49.978;8.742;2022-09-13T07:43:53;15.43;;;13.93;;
4595;SDS011;2310;49.978;8.742;2022-09-13T07:47:55;14.37;;;12.63;;
4595;SDS011;2310;49.978;8.742;2022-09-13T07:51:56;13.77;;;11.80;;
4595;SDS011;2310;49.978;8.742;2022-09-13T07:56:02;13.50;;;12.30;;
4595;SDS011;2310;49.978;8.742;2022-09-13T08:00:05;14.63;;;13.10;;
4595;SDS011;2310;49.978;8.742;2022-09-13T08:04:09;16.97;;;13.03;;
4595;SDS011;2310;49.978;8.742;2022-09-13T08:08:12;14.60;;;13.20;;
4595;SDS011;2310;49.978;8.742;2022-09-13T08:12:13;17.53;;;15.83;;
4595;SDS011;2310;49.978;8.742;2022-09-13T08:16:16;14.93;;;13.53;;
4595;SDS011;2310;49.978;8.742;2022-09-13T08:20:19;13.67;;;12.00;;
4595;SDS011;2310;49.978;8.742;2022-09-13T08:24:21;15.57;;;13.30;;
4595;SDS011;2310;49.978;8.742;2022-09-13T08:28:22;14.90;;;13.17;;
4595;SDS011;2310;49.978;8.742;2022-09-13T08:32:25;15.40;;;13.00;;
4595;SDS011;2310;49.978;8.742;2022-09-13T08:36:27;14.87;;;13.57;;
4595;SDS011;2310;49.978;8.742;2022-09-13T08:40:39;14.33;;;12.83;;
4595;SDS011;2310;49.978;8.742;2022-09-13T08:44:47;13.83;;;12.43;;
4595;SDS011;2310;49.978;8.742;2022-09-13T08:48:51;14.07;;;12.50;;
4595;SDS011;2310;49.978;8.742;2022-09-13T08:53:02;14.60;;;13.00;;
4595;SDS011;2310;49.978;8.742;2022-09-13T08:57:10;17.30;;;11.80;;
4595;SDS011;2310;49.978;8.742;2022-09-13T09:02:09;13.00;;;11.73;;
4595;SDS011;2310;49.978;8.742;2022-09-13T09:05:30;17.17;;;12.27;;
4595;SDS011;2310;49.978;8.742;2022-09-13T09:09:36;14.30;;;9.80;;
4595;SDS011;2310;49.978;8.742;2022-09-13T09:13:47;17.13;;;11.17;;
4595;SDS011;2310;49.978;8.742;2022-09-13T09:22:17;13.83;;;10.00;;
4595;SDS011;2310;49.978;8.742;2022-09-13T09:26:22;12.00;;;10.80;;
4595;SDS011;2310;49.978;8.742;2022-09-13T09:31:07;13.10;;;11.70;;
4595;SDS011;2310;49.978;8.742;2022-09-13T09:34:47;13.30;;;11.70;;
4595;SDS011;2310;49.978;8.742;2022-09-13T09:38:59;22.17;;;19.77;;
4595;SDS011;2310;49.978;8.742;2022-09-13T09:43:00;13.80;;;12.37;;
4595;SDS011;2310;49.978;8.742;2022-09-13T09:51:18;13.80;;;12.40;;
4595;SDS011;2310;49.978;8.742;2022-09-13T09:55:27;13.80;;;12.50;;
4595;SDS011;2310;49.978;8.742;2022-09-13T09:59:30;13.37;;;12.17;;
4595;SDS011;2310;49.978;8.742;2022-09-13T10:03:33;15.97;;;12.80;;
4595;SDS011;2310;49.978;8.742;2022-09-13T10:07:35;13.50;;;12.20;;
4595;SDS011;2310;49.978;8.742;2022-09-13T10:11:53;14.53;;;12.83;;
4595;SDS011;2310;49.978;8.742;2022-09-13T10:16:04;15.10;;;12.57;;
4595;SDS011;2310;49.978;8.742;2022-09-13T10:24:21;17.93;;;14.03;;
4595;SDS011;2310;49.978;8.742;2022-09-13T10:28:22;14.70;;;13.13;;
4595;SDS011;2310;49.978;8.742;2022-09-13T10:32:26;17.03;;;14.20;;
4595;SDS011;2310;49.978;8.742;2022-09-13T10:36:30;14.50;;;12.80;;
4595;SDS011;2310;49.978;8.742;2022-09-13T10:40:37;14.80;;;13.33;;
4595;SDS011;2310;49.978;8.742;2022-09-13T10:44:51;14.20;;;12.90;;
4595;SDS011;2310;49.978;8.742;2022-09-13T10:48:47;14.53;;;13.13;;
4595;SDS011;2310;49.978;8.742;2022-09-13T10:52:56;14.17;;;12.80;;
4595;SDS011;2310;49.978;8.742;2022-09-13T11:01:37;15.80;;;14.23;;
4595;SDS011;2310;49.978;8.742;2022-09-13T11:05:46;15.17;;;13.70;;
4595;SDS011;2310;49.978;8.742;2022-09-13T11:19:03;11.07;;;9.77;;
4595;SDS011;2310;49.978;8.742;2022-09-13T11:23:24;12.73;;;11.10;;
4595;SDS011;2310;49.978;8.742;2022-09-13T11:57:40;17.87;;;14.57;;
4595;SDS011;2310;49.978;8.742;2022-09-13T12:01:45;15.23;;;11.00;;
4595;SDS011;2310;49.978;8.742;2022-09-13T12:05:54;12.70;;;10.90;;
4595;SDS011;2310;49.978;8.742;2022-09-13T12:09:59;12.23;;;10.80;;
4595;SDS011;2310;49.978;8.742;2022-09-13T12:14:03;11.10;;;10.00;;
4595;SDS011;2310;49.978;8.742;2022-09-13T12:22:17;16.90;;;15.30;;
4595;SDS011;2310;49.978;8.742;2022-09-13T12:26:25;13.83;;;12.53;;
4595;SDS011;2310;49.978;8.742;2022-09-13T12:30:43;13.20;;;11.60;;
4595;SDS011;2310;49.978;8.742;2022-09-13T12:34:57;10.97;;;9.93;;
4595;SDS011;2310;49.978;8.742;2022-09-13T12:43:35;16.37;;;14.77;;
4595;SDS011;2310;49.978;8.742;2022-09-13T13:00:34;11.67;;;10.57;;
4595;SDS011;2310;49.978;8.742;2022-09-13T13:04:40;14.13;;;12.83;;
4595;SDS011;2310;49.978;8.742;2022-09-13T13:08:46;14.13;;;12.77;;
4595;SDS011;2310;49.978;8.742;2022-09-13T13:12:50;15.90;;;11.70;;
4595;SDS011;2310;49.978;8.742;2022-09-13T13:16:52;12.80;;;11.47;;
4595;SDS011;2310;49.978;8.742;2022-09-13T13:24:59;14.57;;;13.07;;
4595;SDS011;2310;49.978;8.742;2022-09-13T13:33:26;13.37;;;12.17;;
4595;SDS011;2310;49.978;8.742;2022-09-13T13:37:32;13.73;;;12.37;;
4595;SDS011;2310;49.978;8.742;2022-09-13T13:45:39;12.13;;;10.93;;
4595;SDS011;2310;49.978;8.742;2022-09-13T13:49:50;12.50;;;11.27;;
4595;SDS011;2310;49.978;8.742;2022-09-13T13:53:57;11.60;;;10.57;;
4595;SDS011;2310;49.978;8.742;2022-09-13T14:02:44;13.30;;;12.00;;
4595;SDS011;2310;49.978;8.742;2022-09-13T14:15:47;13.20;;;12.00;;
4595;SDS011;2310;49.978;8.742;2022-09-13T14:19:52;13.40;;;10.87;;
4595;SDS011;2310;49.978;8.742;2022-09-13T14:28:20;11.57;;;10.43;;
4595;SDS011;2310;49.978;8.742;2022-09-13T14:32:24;13.77;;;10.10;;
4595;SDS011;2310;49.978;8.742;2022-09-13T14:36:28;11.90;;;9.00;;
4595;SDS011;2310;49.978;8.742;2022-09-13T14:40:30;11.57;;;10.57;;
4595;SDS011;2310;49.978;8.742;2022-09-13T14:44:31;13.03;;;11.77;;
4595;SDS011;2310;49.978;8.742;2022-09-13T14:48:44;13.77;;;12.37;;
4595;SDS011;2310;49.978;8.742;2022-09-13T14:52:47;10.23;;;8.10;;
4595;SDS011;2310;49.978;8.742;2022-09-13T14:56:52;11.33;;;8.83;;
4595;SDS011;2310;49.978;8.742;2022-09-13T15:01:02;10.47;;;9.37;;
4595;SDS011;2310;49.978;8.742;2022-09-13T15:05:10;10.43;;;9.43;;
4595;SDS011;2310;49.978;8.742;2022-09-13T15:09:13;10.30;;;8.77;;
4595;SDS011;2310;49.978;8.742;2022-09-13T15:13:16;10.60;;;8.70;;
4595;SDS011;2310;49.978;8.742;2022-09-13T15:17:17;11.10;;;9.43;;
4595;SDS011;2310;49.978;8.742;2022-09-13T15:21:18;9.93;;;8.93;;
4595;SDS011;2310;49.978;8.742;2022-09-13T15:25:24;9.03;;;8.13;;
4595;SDS011;2310;49.978;8.742;2022-09-13T15:29:27;9.93;;;8.90;;
4595;SDS011;2310;49.978;8.742;2022-09-13T15:33:31;8.77;;;7.87;;
4595;SDS011;2310;49.978;8.742;2022-09-13T15:37:35;9.70;;;8.30;;
4595;SDS011;2310;49.978;8.742;2022-09-13T15:41:38;9.80;;;8.87;;
4595;SDS011;2310;49.978;8.742;2022-09-13T15:45:40;11.93;;;10.73;;
4595;SDS011;2310;49.978;8.742;2022-09-13T15:49:45;10.00;;;8.80;;
4595;SDS011;2310;49.978;8.742;2022-09-13T15:53:50;8.73;;;7.93;;
4595;SDS011;2310;49.978;8.742;2022-09-13T15:57:52;8.47;;;7.77;;
4595;SDS011;2310;49.978;8.742;2022-09-13T16:01:54;9.63;;;8.67;;
4595;SDS011;2310;49.978;8.742;2022-09-13T16:05:57;9.43;;;8.53;;
4595;SDS011;2310;49.978;8.742;2022-09-13T16:09:58;10.07;;;7.10;;
4595;SDS011;2310;49.978;8.742;2022-09-13T16:14:01;9.23;;;8.23;;
4595;SDS011;2310;49.978;8.742;2022-09-13T16:18:02;8.27;;;7.37;;
4595;SDS011;2310;49.978;8.742;2022-09-13T16:22:04;10.50;;;9.50;;
4595;SDS011;2310;49.978;8.742;2022-09-13T16:26:07;8.20;;;7.43;;
4595;SDS011;2310;49.978;8.742;2022-09-13T16:30:09;10.57;;;9.53;;
4595;SDS011;2310;49.978;8.742;2022-09-13T16:34:13;9.73;;;8.83;;
4595;SDS011;2310;49.978;8.742;2022-09-13T16:38:14;9.83;;;8.87;;
4595;SDS011;2310;49.978;8.742;2022-09-13T16:42:15;8.50;;;7.70;;
4595;SDS011;2310;49.978;8.742;2022-09-13T16:46:17;10.27;;;9.17;;
4595;SDS011;2310;49.978;8.742;2022-09-13T16:50:18;8.27;;;7.10;;
4595;SDS011;2310;49.978;8.742;2022-09-13T16:54:20;10.33;;;9.23;;
4595;SDS011;2310;49.978;8.742;2022-09-13T16:58:21;9.27;;;8.27;;
4595;SDS011;2310;49.978;8.742;2022-09-13T17:02:22;8.67;;;7.87;;
4595;SDS011;2310;49.978;8.742;2022-09-13T17:06:26;10.00;;;8.30;;
4595;SDS011;2310;49.978;8.742;2022-09-13T17:10:27;9.67;;;8.70;;
4595;SDS011;2310;49.978;8.742;2022-09-13T17:14:28;8.47;;;7.67;;
4595;SDS011;2310;49.978;8.742;2022-09-13T17:18:30;8.50;;;7.50;;
4595;SDS011;2310;49.978;8.742;2022-09-13T17:22:31;8.60;;;7.80;;
4595;SDS011;2310;49.978;8.742;2022-09-13T17:26:34;9.80;;;7.27;;
4595;SDS011;2310;49.978;8.742;2022-09-13T17:30:35;9.93;;;9.03;;
4595;SDS011;2310;49.978;8.742;2022-09-13T17:34:36;17.87;;;14.07;;
4595;SDS011;2310;49.978;8.742;2022-09-13T17:38:38;12.60;;;10.57;;
4595;SDS011;2310;49.978;8.742;2022-09-13T17:42:39;12.33;;;11.10;;
4595;SDS011;2310;49.978;8.742;2022-09-13T17:46:42;10.73;;;9.73;;
4595;SDS011;2310;49.978;8.742;2022-09-13T17:50:43;11.37;;;9.90;;
4595;SDS011;2310;49.978;8.742;2022-09-13T17:54:44;9.87;;;8.97;;
4595;SDS011;2310;49.978;8.742;2022-09-13T17:58:46;10.43;;;9.43;;
4595;SDS011;2310;49.978;8.742;2022-09-13T18:02:48;10.70;;;8.37;;
4595;SDS011;2310;49.978;8.742;2022-09-13T18:06:50;11.97;;;9.70;;
4595;SDS011;2310;49.978;8.742;2022-09-13T18:10:52;13.40;;;11.50;;
4595;SDS011;2310;49.978;8.742;2022-09-13T18:14:55;15.60;;;14.20;;
4595;SDS011;2310;49.978;8.742;2022-09-13T18:18:58;15.53;;;14.23;;
4595;SDS011;2310;49.978;8.742;2022-09-13T18:23:00;16.50;;;14.97;;
4595;SDS011;2310;49.978;8.742;2022-09-13T18:27:01;36.53;;;30.30;;
4595;SDS011;2310;49.978;8.742;2022-09-13T18:31:04;14.83;;;13.17;;
4595;SDS011;2310;49.978;8.742;2022-09-13T18:35:08;13.17;;;11.87;;
4595;SDS011;2310;49.978;8.742;2022-09-13T18:39:13;13.37;;;10.27;;
4595;SDS011;2310;49.978;8.742;2022-09-13T18:43:17;11.17;;;9.57;;
4595;SDS011;2310;49.978;8.742;2022-09-13T18:47:18;11.70;;;10.70;;
4595;SDS011;2310;49.978;8.742;2022-09-13T18:51:20;14.57;;;11.87;;
4595;SDS011;2310;49.978;8.742;2022-09-13T18:55:33;13.60;;;10.80;;
4595;SDS011;2310;49.978;8.742;2022-09-13T18:59:37;18.03;;;16.23;;
4595;SDS011;2310;49.978;8.742;2022-09-13T19:03:38;13.90;;;12.53;;
4595;SDS011;2310;49.978;8.742;2022-09-13T19:07:40;15.10;;;13.60;;
4595;SDS011;2310;49.978;8.742;2022-09-13T19:11:42;14.20;;;12.03;;
4595;SDS011;2310;49.978;8.742;2022-09-13T19:15:47;14.13;;;12.80;;
4595;SDS011;2310;49.978;8.742;2022-09-13T19:19:48;14.17;;;12.67;;
4595;SDS011;2310;49.978;8.742;2022-09-13T19:23:50;14.77;;;12.90;;
4595;SDS011;2310;49.978;8.742;2022-09-13T19:27:53;14.23;;;12.87;;
4595;SDS011;2310;49.978;8.742;2022-09-13T19:31:55;12.53;;;11.43;;
4595;SDS011;2310;49.978;8.742;2022-09-13T19:36:05;18.77;;;15.30;;
4595;SDS011;2310;49.978;8.742;2022-09-13T19:40:05;15.00;;;13.60;;
4595;SDS011;2310;49.978;8.742;2022-09-13T19:44:07;14.33;;;12.93;;
4595;SDS011;2310;49.978;8.742;2022-09-13T19:48:10;14.60;;;13.07;;
4595;SDS011;2310;49.978;8.742;2022-09-13T19:52:13;13.23;;;12.03;;
4595;SDS011;2310;49.978;8.742;2022-09-13T19:56:14;13.37;;;12.13;;
4595;SDS011;2310;49.978;8.742;2022-09-13T20:00:16;16.13;;;14.70;;
4595;SDS011;2310;49.978;8.742;2022-09-13T20:04:18;15.43;;;14.03;;
4595;SDS011;2310;49.978;8.742;2022-09-13T20:08:21;12.67;;;11.57;;
4595;SDS011;2310;49.978;8.742;2022-09-13T20:12:24;13.53;;;12.23;;
4595;SDS011;2310;49.978;8.742;2022-09-13T20:16:30;15.00;;;13.00;;
4595;SDS011;2310;49.978;8.742;2022-09-13T20:20:33;12.30;;;11.00;;
4595;SDS011;2310;49.978;8.742;2022-09-13T20:24:35;13.07;;;11.77;;
4595;SDS011;2310;49.978;8.742;2022-09-13T20:28:36;16.67;;;11.97;;
4595;SDS011;2310;49.978;8.742;2022-09-13T20:32:37;12.50;;;11.30;;
4595;SDS011;2310;49.978;8.742;2022-09-13T20:36:39;12.77;;;11.33;;
4595;SDS011;2310;49.978;8.742;2022-09-13T20:40:42;11.50;;;10.50;;
4595;SDS011;2310;49.978;8.742;2022-09-13T20:44:43;12.73;;;11.53;;
4595;SDS011;2310;49.978;8.742;2022-09-13T20:48:45;12.37;;;11.20;;
4595;SDS011;2310;49.978;8.742;2022-09-13T20:52:48;11.07;;;10.07;;
4595;SDS011;2310;49.978;8.742;2022-09-13T20:56:49;12.37;;;11.10;;
4595;SDS011;2310;49.978;8.742;2022-09-13T21:00:51;13.60;;;11.53;;
4595;SDS011;2310;49.978;8.742;2022-09-13T21:04:52;12.67;;;10.27;;
4595;SDS011;2310;49.978;8.742;2022-09-13T21:08:53;10.63;;;8.40;;
4595;SDS011;2310;49.978;8.742;2022-09-13T21:12:56;10.70;;;9.60;;
4595;SDS011;2310;49.978;8.742;2022-09-13T21:16:59;13.67;;;11.43;;
4595;SDS011;2310;49.978;8.742;2022-09-13T21:21:01;11.07;;;10.10;;
4595;SDS011;2310;49.978;8.742;2022-09-13T21:25:03;14.70;;;13.40;;
4595;SDS011;2310;49.978;8.742;2022-09-13T21:29:06;15.47;;;14.00;;
4595;SDS011;2310;49.978;8.742;2022-09-13T21:33:09;15.63;;;14.00;;
4595;SDS011;2310;49.978;8.742;2022-09-13T21:37:10;16.90;;;15.30;;
4595;SDS011;2310;49.978;8.742;2022-09-13T21:41:14;17.40;;;15.60;;
4595;SDS011;2310;49.978;8.742;2022-09-13T21:45:16;21.00;;;18.80;;
4595;SDS011;2310;49.978;8.742;2022-09-13T21:49:18;18.07;;;16.37;;
4595;SDS011;2310;49.978;8.742;2022-09-13T21:53:20;17.10;;;15.50;;
4595;SDS011;2310;49.978;8.742;2022-09-13T21:57:21;17.70;;;16.20;;
4595;SDS011;2310;49.978;8.742;2022-09-13T22:01:22;17.70;;;16.00;;
4595;SDS011;2310;49.978;8.742;2022-09-13T22:05:25;14.80;;;13.30;;
4595;SDS011;2310;49.978;8.742;2022-09-13T22:09:26;16.77;;;15.27;;
4595;SDS011;2310;49.978;8.742;2022-09-13T22:13:28;19.27;;;17.47;;
4595;SDS011;2310;49.978;8.742;2022-09-13T22:17:32;26.40;;;24.03;;
4595;SDS011;2310;49.978;8.742;2022-09-13T22:21:34;20.37;;;18.57;;
4595;SDS011;2310;49.978;8.742;2022-09-13T22:25:39;23.10;;;20.93;;
4595;SDS011;2310;49.978;8.742;2022-09-13T22:29:41;19.73;;;17.93;;
4595;SDS011;2310;49.978;8.742;2022-09-13T22:33:43;22.47;;;20.40;;
4595;SDS011;2310;49.978;8.742;2022-09-13T22:37:44;23.83;;;21.47;;
4595;SDS011;2310;49.978;8.742;2022-09-13T22:41:45;21.20;;;19.20;;
4595;SDS011;2310;49.978;8.742;2022-09-13T22:45:46;20.20;;;18.50;;
4595;SDS011;2310;49.978;8.742;2022-09-13T22:49:48;17.93;;;16.33;;
4595;SDS011;2310;49.978;8.742;2022-09-13T22:53:49;18.63;;;16.70;;
4595;SDS011;2310;49.978;8.742;2022-09-13T22:57:52;19.57;;;17.67;;
4595;SDS011;2310;49.978;8.742;2022-09-13T23:01:53;20.77;;;18.73;;
4595;SDS011;2310;49.978;8.742;2022-09-13T23:05:55;20.30;;;18.40;;
4595;SDS011;2310;49.978;8.742;2022-09-13T23:09:57;19.67;;;17.87;;
4595;SDS011;2310;49.978;8.742;2022-09-13T23:13:59;21.43;;;19.20;;
4595;SDS011;2310;49.978;8.742;2022-09-13T23:18:03;20.70;;;18.80;;
4595;SDS011;2310;49.978;8.742;2022-09-13T23:22:05;20.20;;;18.30;;
4595;SDS011;2310;49.978;8.742;2022-09-13T23:26:08;19.93;;;18.23;;
4595;SDS011;2310;49.978;8.742;2022-09-13T23:30:10;19.70;;;17.90;;
4595;SDS011;2310;49.978;8.742;2022-09-13T23:34:12;16.63;;;15.13;;
4595;SDS011;2310;49.978;8.742;2022-09-13T23:38:14;16.73;;;15.03;;
4595;SDS011;2310;49.978;8.742;2022-09-13T23:42:15;17.43;;;15.83;;
4595;SDS011;2310;49.978;8.742;2022-09-13T23:46:17;19.60;;;17.70;;
4595;SDS011;2310;49.978;8.742;2022-09-13T23:50:19;18.73;;;17.03;;
4595;SDS011;2310;49.978;8.742;2022-09-13T23:54:20;17.87;;;16.17;;
4595;SDS011;2310;49.978;8.742;2022-09-13T23:58:21;15.00;;;13.40;;
